createdAt,value
2023-01-13T00:02:13.109Z,88.96
2023-01-13T00:04:41.091Z,88.47
2023-01-13T00:07:08.968Z,88.78
2023-01-13T00:09:36.760Z,87.51
2023-01-13T00:12:06.747Z,87.96
2023-01-13T00:14:36.345Z,88.39
2023-01-13T00:17:04.759Z,88.57
2023-01-13T00:19:34.367Z,88.37
2023-01-13T00:22:06.632Z,89.45
2023-01-13T00:24:34.638Z,89.19
2023-01-13T00:27:02.455Z,89.58
2023-01-13T00:29:30.333Z,89.62
2023-01-13T00:32:01.770Z,88.86
2023-01-13T00:34:29.807Z,89.03
2023-01-13T00:36:58.203Z,89.29
2023-01-13T00:39:26.092Z,89.17
2023-01-13T00:42:16.786Z,89.81
2023-01-13T00:44:44.613Z,89.59
2023-01-13T00:47:12.491Z,90.18
2023-01-13T00:49:40.719Z,89.54
2023-01-13T00:52:08.615Z,90.36
2023-01-13T00:54:39.340Z,90.02
2023-01-13T00:57:07.187Z,89.17
2023-01-13T00:59:34.983Z,90.14
2023-01-13T01:04:56.668Z,90.59
2023-01-13T01:07:24.521Z,90.74
2023-01-13T01:09:52.658Z,89.32
2023-01-13T01:12:21.375Z,89.36
2023-01-13T01:14:49.227Z,90.48
2023-01-13T01:17:17.622Z,90.74
2023-01-13T01:19:47.337Z,90.95
2023-01-13T01:22:16.662Z,90.61
2023-01-13T01:24:44.510Z,90.94
2023-01-13T01:27:15.651Z,91.25
2023-01-13T01:29:43.467Z,91.29
2023-01-13T01:32:13.482Z,92.15
2023-01-13T01:34:41.435Z,90.84
2023-01-13T01:37:09.247Z,91.39
2023-01-13T01:39:38.697Z,92.16
2023-01-13T01:42:25.064Z,92.50
2023-01-13T01:44:59.109Z,91.66
2023-01-13T01:47:29.044Z,92.18
2023-01-13T01:49:58.646Z,92.26
2023-01-13T01:52:33.873Z,92.47
2023-01-13T01:55:09.640Z,92.92
2023-01-13T01:57:46.533Z,93.06
2023-01-13T02:00:16.832Z,92.62
2023-01-13T02:02:48.384Z,92.56
2023-01-13T02:05:18.768Z,92.69
2023-01-13T02:07:49.790Z,92.26
2023-01-13T02:10:21.681Z,92.74
2023-01-13T02:12:51.097Z,92.89
2023-01-13T02:16:22.703Z,92.51
2023-01-13T02:18:53.770Z,92.46
2023-01-13T02:24:54.482Z,92.29
2023-01-13T02:27:46.701Z,92.48
2023-01-13T02:30:51.082Z,92.92
2023-01-13T02:33:57.027Z,91.76
2023-01-13T02:36:47.228Z,91.06
2023-01-13T02:39:27.982Z,90.41
2023-01-13T02:42:23.784Z,90.31
2023-01-13T02:44:58.765Z,89.48
2023-01-13T02:47:28.947Z,89.31
2023-01-13T02:50:05.586Z,89.53
2023-01-13T02:52:41.330Z,89.25
2023-01-13T02:55:17.223Z,88.83
2023-01-13T02:57:46.715Z,89.56
2023-01-13T03:00:17.784Z,89.27
2023-01-13T03:02:48.171Z,89.04
2023-01-13T03:05:17.735Z,89.02
2023-01-13T03:07:53.397Z,89.33
2023-01-13T03:10:44.808Z,89.11
2023-01-13T03:13:24.783Z,89.27
2023-01-13T03:15:52.692Z,89.16
2023-01-13T03:18:46.199Z,88.94
2023-01-13T03:21:33.674Z,88.92
2023-01-13T03:24:13.971Z,89.40
2023-01-13T03:27:18.674Z,88.82
2023-01-13T03:29:55.748Z,89.16
2023-01-13T03:32:28.654Z,89.03
2023-01-13T03:35:16.021Z,89.39
2023-01-13T03:38:11.141Z,89.99
2023-01-13T03:41:01.789Z,90.30
2023-01-13T03:43:56.387Z,89.88
2023-01-13T03:46:35.254Z,89.41
2023-01-13T03:49:07.716Z,90.37
2023-01-13T03:51:39.974Z,90.62
2023-01-13T03:54:11.963Z,89.83
2023-01-13T03:56:51.841Z,89.35
2023-01-13T03:59:24.711Z,90.24
2023-01-13T04:02:21.773Z,89.94
2023-01-13T04:05:04.782Z,90.26
2023-01-13T04:07:51.168Z,91.52
2023-01-13T04:16:53.760Z,91.59
2023-01-13T04:19:21.851Z,92.14
2023-01-13T04:21:49.767Z,91.51
2023-01-13T04:24:18.712Z,91.21
2023-01-13T04:26:47.303Z,89.69
2023-01-13T04:29:15.795Z,89.12
2023-01-13T04:31:44.700Z,89.96
2023-01-13T04:34:13.482Z,90.49
2023-01-13T04:36:43.605Z,89.99
2023-01-13T04:39:11.437Z,89.80
2023-01-13T04:41:58.720Z,89.56
2023-01-13T04:44:27.441Z,90.82
2023-01-13T04:46:55.344Z,90.02
2023-01-13T04:49:23.861Z,89.42
2023-01-13T04:51:51.756Z,89.52
2023-01-13T04:54:20.737Z,89.40
2023-01-13T04:56:48.688Z,90.16
2023-01-13T04:59:16.498Z,90.56
2023-01-13T05:01:45.582Z,90.06
2023-01-13T05:04:15.507Z,89.19
2023-01-13T05:06:43.342Z,88.71
2023-01-13T05:09:16.691Z,88.68
2023-01-13T05:12:04.432Z,88.71
2023-01-13T05:14:51.255Z,89.10
2023-01-13T05:17:23.184Z,89.42
2023-01-13T05:19:52.871Z,89.65
2023-01-13T05:22:39.586Z,89.71
2023-01-13T05:25:26.864Z,90.72
2023-01-13T05:28:19.835Z,90.24
2023-01-13T05:30:49.655Z,90.53
2023-01-13T05:33:20.656Z,90.86
2023-01-13T05:35:49.725Z,90.58
2023-01-13T05:38:18.607Z,89.99
2023-01-13T05:41:06.699Z,90.61
2023-01-13T05:43:35.437Z,91.19
2023-01-13T05:46:09.792Z,91.13
2023-01-13T05:48:40.291Z,90.78
2023-01-13T05:51:11.777Z,91.00
2023-01-13T05:53:41.628Z,92.33
2023-01-13T05:56:09.711Z,92.20
2023-01-13T05:58:37.815Z,92.09
2023-01-13T06:01:08.598Z,91.59
2023-01-13T06:03:37.872Z,92.20
2023-01-13T06:06:08.569Z,92.17
2023-01-13T06:08:39.266Z,91.79
2023-01-13T06:11:08.699Z,92.62
2023-01-13T06:13:36.520Z,92.15
2023-01-13T06:16:04.675Z,92.24
2023-01-13T06:18:32.812Z,92.57
2023-01-13T06:21:00.825Z,92.54
2023-01-13T06:23:29.251Z,91.93
2023-01-13T06:26:03.020Z,91.65
2023-01-13T06:28:31.733Z,91.92
2023-01-13T06:31:03.971Z,92.45
2023-01-13T06:33:50.036Z,92.89
2023-01-13T06:36:24.449Z,92.55
2023-01-13T06:38:56.813Z,91.88
2023-01-13T06:41:48.740Z,92.98
2023-01-13T06:44:18.625Z,92.60
2023-01-13T06:46:47.880Z,92.65
2023-01-13T06:49:17.705Z,92.24
2023-01-13T06:51:46.505Z,92.78
2023-01-13T06:54:14.727Z,92.20
2023-01-13T06:56:42.628Z,92.19
2023-01-13T06:59:10.472Z,91.84
2023-01-13T07:01:38.964Z,91.74
2023-01-13T07:04:06.821Z,91.79
2023-01-13T07:06:34.715Z,91.54
2023-01-13T07:09:03.067Z,91.21
2023-01-13T07:11:31.475Z,91.23
2023-01-13T07:14:19.755Z,91.98
2023-01-13T07:16:47.593Z,91.81
2023-01-13T07:19:15.914Z,92.07
2023-01-13T07:21:44.689Z,91.87
2023-01-13T07:24:13.370Z,91.14
2023-01-13T07:26:41.663Z,92.07
2023-01-13T07:29:10.304Z,91.66
2023-01-13T07:31:40.762Z,91.84
2023-01-13T07:34:09.148Z,91.34
2023-01-13T07:36:37.703Z,92.66
2023-01-13T07:39:05.547Z,91.39
2023-01-13T07:41:52.746Z,91.67
2023-01-13T07:44:21.467Z,90.37
2023-01-13T07:46:49.340Z,90.94
2023-01-13T07:52:09.721Z,91.06
2023-01-13T07:54:41.192Z,91.28
2023-01-13T07:57:09.425Z,91.86
2023-01-13T07:59:40.540Z,92.27
2023-01-13T08:02:13.821Z,91.20
2023-01-13T08:04:41.839Z,90.70
2023-01-13T08:07:11.710Z,91.58
2023-01-13T08:09:40.880Z,91.88
2023-01-13T08:12:41.091Z,91.53
2023-01-13T08:20:09.675Z,92.70
2023-01-13T08:22:38.343Z,91.36
2023-01-13T08:28:02.440Z,91.05
2023-01-13T08:30:30.575Z,90.57
2023-01-13T08:33:01.344Z,89.61
2023-01-13T08:35:29.163Z,88.93
2023-01-13T08:37:57.154Z,89.22
2023-01-13T08:40:26.025Z,88.72
2023-01-13T08:42:55.836Z,88.32
2023-01-13T08:45:23.653Z,89.49
2023-01-13T08:47:51.854Z,90.34
2023-01-13T08:50:19.859Z,91.03
2023-01-13T08:52:47.751Z,90.74
2023-01-13T08:55:16.842Z,89.02
2023-01-13T08:57:46.318Z,89.70
2023-01-13T09:00:14.813Z,89.22
2023-01-13T09:02:44.852Z,89.28
2023-01-13T09:05:12.795Z,88.78
2023-01-13T09:07:42.815Z,88.26
2023-01-13T09:10:10.930Z,89.12
2023-01-13T09:12:58.023Z,88.21
2023-01-13T09:15:26.063Z,87.43
2023-01-13T09:17:54.031Z,88.02
2023-01-13T09:20:25.719Z,89.14
2023-01-13T09:22:53.603Z,89.88
2023-01-13T09:25:21.465Z,89.72
2023-01-13T09:27:49.740Z,87.05
2023-01-13T09:30:19.420Z,85.12
2023-01-13T09:32:48.999Z,83.33
2023-01-13T09:35:17.500Z,84.04
2023-01-13T09:37:45.382Z,83.74
2023-01-13T09:40:18.666Z,82.71
2023-01-13T09:43:16.285Z,83.68
2023-01-13T09:45:53.832Z,82.61
2023-01-13T09:48:51.785Z,83.58
2023-01-13T09:51:29.915Z,81.48
2023-01-13T09:54:05.278Z,81.40
2023-01-13T09:56:33.414Z,81.88
2023-01-13T09:59:01.301Z,83.61
2023-01-13T10:01:46.445Z,81.86
2023-01-13T10:04:15.929Z,80.46
2023-01-13T10:06:49.897Z,81.67
2023-01-13T10:09:50.648Z,80.35
2023-01-13T10:12:42.304Z,81.03
2023-01-13T10:15:20.643Z,80.79
2023-01-13T10:18:08.911Z,81.12
2023-01-13T10:21:07.909Z,80.54
2023-01-13T10:24:05.917Z,80.08
2023-01-13T10:27:02.146Z,80.13
2023-01-13T10:29:31.891Z,79.66
2023-01-13T10:32:00.632Z,81.55
2023-01-13T10:34:30.739Z,82.53
2023-01-13T10:37:09.155Z,82.28
2023-01-13T10:39:46.081Z,82.32
2023-01-13T10:42:19.908Z,82.49
2023-01-13T10:44:49.768Z,82.94
2023-01-13T10:47:36.155Z,82.74
2023-01-13T10:50:13.154Z,81.89
2023-01-13T10:53:02.395Z,82.37
2023-01-13T10:55:33.780Z,82.17
2023-01-13T10:58:24.827Z,81.61
2023-01-13T11:01:03.814Z,80.48
2023-01-13T11:03:43.476Z,79.94
2023-01-13T11:06:30.879Z,79.79
2023-01-13T11:08:59.193Z,79.90
2023-01-13T11:11:46.030Z,81.09
2023-01-13T11:14:42.815Z,80.23
2023-01-13T11:17:31.760Z,80.51
2023-01-13T11:20:13.382Z,80.24
2023-01-13T11:22:50.956Z,79.96
2023-01-13T11:25:42.143Z,79.94
2023-01-13T11:28:35.717Z,81.27
2023-01-13T11:31:30.252Z,80.69
2023-01-13T11:34:19.856Z,82.48
2023-01-13T11:36:51.798Z,86.47
2023-01-13T11:39:40.849Z,89.65
2023-01-13T11:42:20.877Z,91.59
2023-01-13T11:45:18.632Z,94.39
2023-01-13T11:47:49.621Z,95.14
2023-01-13T11:50:31.805Z,95.92
2023-01-13T11:53:06.381Z,96.55
2023-01-13T11:56:14.343Z,97.02
2023-01-13T11:58:50.942Z,97.86
2023-01-13T12:01:42.019Z,99.11
2023-01-13T12:04:28.282Z,98.99
2023-01-13T12:07:20.216Z,98.60
2023-01-13T12:10:26.150Z,98.83
2023-01-13T12:13:21.768Z,99.42
2023-01-13T12:15:52.771Z,99.67
2023-01-13T12:18:34.766Z,100.00
2023-01-13T12:21:28.983Z,99.08
2023-01-13T12:24:25.670Z,99.97
2023-01-13T12:27:01.908Z,100.00
2023-01-13T12:32:49.830Z,99.58
2023-01-13T12:35:28.175Z,100.00
2023-01-13T12:38:10.798Z,99.73
2023-01-13T12:40:51.623Z,99.70
2023-01-13T12:43:41.739Z,99.05
2023-01-13T12:46:19.071Z,97.98
2023-01-13T12:49:02.851Z,98.14
2023-01-13T12:51:47.201Z,97.33
2023-01-13T12:54:31.779Z,98.09
2023-01-13T12:57:01.081Z,99.02
2023-01-13T12:59:28.876Z,99.44
2023-01-13T13:02:09.283Z,98.06
2023-01-13T13:04:57.025Z,97.20
2023-01-13T13:07:31.042Z,96.48
2023-01-13T13:10:13.829Z,97.65
2023-01-13T13:13:02.099Z,99.07
2023-01-13T13:15:35.677Z,98.77
2023-01-13T13:18:21.852Z,98.45
2023-01-13T13:21:05.500Z,98.24
2023-01-13T13:23:33.910Z,96.56
2023-01-13T13:26:17.059Z,96.75
2023-01-13T13:29:16.129Z,95.87
2023-01-13T13:31:53.229Z,97.07
2023-01-13T13:38:12.104Z,95.61
2023-01-13T13:41:01.409Z,93.95
2023-01-13T13:43:52.724Z,92.42
2023-01-13T13:46:43.207Z,92.65
2023-01-13T13:52:14.931Z,91.51
2023-01-13T13:54:47.677Z,92.49
2023-01-13T13:57:33.107Z,93.56
2023-01-13T14:00:07.902Z,93.34
2023-01-13T14:02:39.630Z,93.93
2023-01-13T14:05:19.892Z,95.32
2023-01-13T14:07:51.796Z,96.90
2023-01-13T14:10:28.609Z,98.35
2023-01-13T14:13:03.721Z,98.70
2023-01-13T14:15:35.972Z,100.00
2023-01-13T14:18:14.965Z,99.96
2023-01-13T14:20:55.145Z,100.00
2023-01-13T14:23:32.691Z,100.00
2023-01-13T14:26:08.596Z,100.00
2023-01-13T14:28:41.868Z,100.00
2023-01-13T14:31:10.900Z,100.00
2023-01-13T14:33:46.215Z,100.00
2023-01-13T14:36:18.021Z,100.00
2023-01-13T14:42:04.765Z,100.00
2023-01-13T14:44:36.651Z,100.00
2023-01-13T14:50:22.674Z,100.00
2023-01-13T14:52:57.066Z,100.00
2023-01-13T14:55:37.778Z,100.00
2023-01-13T14:58:28.550Z,100.00
2023-01-13T15:04:37.463Z,100.00
2023-01-13T15:07:05.746Z,100.00
2023-01-13T15:09:40.472Z,100.00
2023-01-13T15:12:23.127Z,100.00
2023-01-13T15:14:55.732Z,100.00
2023-01-13T15:17:23.562Z,100.00
2023-01-13T15:19:53.456Z,100.00
2023-01-13T15:22:21.460Z,100.00
2023-01-13T15:24:50.401Z,100.00
2023-01-13T15:27:25.289Z,100.00
2023-01-13T15:29:53.465Z,100.00
2023-01-13T15:32:22.184Z,100.00
2023-01-13T15:34:53.721Z,100.00
2023-01-13T15:37:21.547Z,100.00
2023-01-13T15:39:50.748Z,100.00
2023-01-13T15:42:37.368Z,100.00
2023-01-13T15:45:24.944Z,100.00
2023-01-13T15:47:52.763Z,100.00
2023-01-13T15:50:20.909Z,99.76
2023-01-13T15:55:47.905Z,100.00
2023-01-13T15:58:20.612Z,100.00
2023-01-13T16:03:45.764Z,100.00
2023-01-13T16:06:20.360Z,100.00
2023-01-13T16:08:48.782Z,100.00
2023-01-13T16:11:16.658Z,100.00
2023-01-13T16:13:44.529Z,100.00
2023-01-13T16:16:23.956Z,100.00
2023-01-13T16:18:53.402Z,100.00
2023-01-13T16:21:22.354Z,100.00
2023-01-13T16:23:52.715Z,99.13
2023-01-13T16:26:29.262Z,99.22
2023-01-13T16:29:01.726Z,99.60
2023-01-13T16:31:32.980Z,99.98
2023-01-13T16:34:02.544Z,100.00
2023-01-13T16:36:34.939Z,98.20
2023-01-13T16:39:03.350Z,96.93
2023-01-13T16:41:31.168Z,95.32
2023-01-13T16:44:07.832Z,94.75
2023-01-13T16:46:35.691Z,93.76
2023-01-13T16:49:05.421Z,93.90
2023-01-13T16:51:34.044Z,93.39
2023-01-13T16:54:05.872Z,94.46
2023-01-13T16:56:36.799Z,95.08
2023-01-13T16:59:07.669Z,95.10
2023-01-13T17:01:39.986Z,94.35
2023-01-13T17:04:16.054Z,94.63
2023-01-13T17:06:58.872Z,95.84
2023-01-13T17:09:29.009Z,95.43
2023-01-13T17:11:57.562Z,96.38
2023-01-13T17:14:26.800Z,97.36
2023-01-13T17:16:58.207Z,97.92
2023-01-13T17:19:26.127Z,97.55
2023-01-13T17:22:19.975Z,97.52
2023-01-13T17:24:48.857Z,98.29
2023-01-13T17:27:18.559Z,98.98
2023-01-13T17:29:47.840Z,99.00
2023-01-13T17:32:21.291Z,98.61
2023-01-13T17:37:41.982Z,98.54
2023-01-13T17:40:13.634Z,98.87
2023-01-13T17:42:41.847Z,100.00
2023-01-13T17:45:12.022Z,99.38
2023-01-13T17:47:39.868Z,98.79
2023-01-13T17:50:09.299Z,99.05
2023-01-13T17:52:37.573Z,98.58
2023-01-13T17:55:05.696Z,99.07
2023-01-13T17:57:37.151Z,98.96
2023-01-13T18:00:05.788Z,99.19
2023-01-13T18:02:59.519Z,99.42
2023-01-13T18:05:27.929Z,99.64
2023-01-13T18:07:56.466Z,100.00
2023-01-13T18:10:24.532Z,99.87
2023-01-13T18:12:52.379Z,99.81
2023-01-13T18:15:24.864Z,98.44
2023-01-13T18:18:17.879Z,98.87
2023-01-13T18:21:04.842Z,99.01
2023-01-13T18:23:51.595Z,99.31
2023-01-13T18:26:40.829Z,99.36
2023-01-13T18:29:08.709Z,99.56
2023-01-13T18:31:36.512Z,99.73
2023-01-13T18:34:04.888Z,100.00
2023-01-13T18:36:32.683Z,99.65
2023-01-13T18:39:00.597Z,99.21
2023-01-13T18:41:46.858Z,99.70
2023-01-13T18:44:14.998Z,99.75
2023-01-13T18:46:44.879Z,100.00
2023-01-13T18:49:13.101Z,98.90
2023-01-13T18:52:07.912Z,99.16
2023-01-13T18:54:35.913Z,100.00
2023-01-13T19:05:35.595Z,100.00
2023-01-13T19:08:08.899Z,100.00
2023-01-13T19:10:37.571Z,100.00
2023-01-13T19:13:05.398Z,99.82
2023-01-13T19:15:36.637Z,99.88
2023-01-13T19:18:04.546Z,99.71
2023-01-13T19:20:32.465Z,100.00
2023-01-13T19:23:00.795Z,100.00
2023-01-13T19:25:28.597Z,100.00
2023-01-13T19:27:56.504Z,100.00
2023-01-13T19:30:24.519Z,100.00
2023-01-13T19:32:52.443Z,100.00
2023-01-13T19:35:20.308Z,100.00
2023-01-13T19:37:48.824Z,99.53
2023-01-13T19:40:16.790Z,100.00
2023-01-13T19:43:03.353Z,100.00
2023-01-13T19:45:36.353Z,100.00
2023-01-13T19:48:05.983Z,100.00
2023-01-13T19:50:38.797Z,100.00
2023-01-13T19:53:07.252Z,100.00
2023-01-13T19:55:35.292Z,99.97
2023-01-13T19:58:03.957Z,99.56
2023-01-13T20:00:32.831Z,99.82
2023-01-13T20:03:03.533Z,99.75
2023-01-13T20:05:33.034Z,100.00
2023-01-13T20:08:01.516Z,100.00
2023-01-13T20:10:30.589Z,100.00
2023-01-13T20:12:59.834Z,100.00
2023-01-13T20:15:28.535Z,100.00
2023-01-13T20:17:57.928Z,100.00
2023-01-13T20:20:28.140Z,100.00
2023-01-13T20:22:58.062Z,99.95
2023-01-13T20:25:29.016Z,100.00
2023-01-13T20:28:02.168Z,100.00
2023-01-13T20:33:24.871Z,99.87
2023-01-13T20:35:58.704Z,99.42
2023-01-13T20:38:26.909Z,99.72
2023-01-13T20:41:00.131Z,99.10
2023-01-13T20:43:29.929Z,99.20
2023-01-13T20:45:57.791Z,99.92
2023-01-13T20:48:25.619Z,100.00
2023-01-13T20:50:54.302Z,100.00
2023-01-13T20:53:22.164Z,99.99
2023-01-13T20:55:53.947Z,100.00
2023-01-13T20:58:23.859Z,100.00
2023-01-13T21:00:51.762Z,100.00
2023-01-13T21:03:19.741Z,99.40
2023-01-13T21:05:48.533Z,99.63
2023-01-13T21:08:17.858Z,98.92
2023-01-13T21:10:45.817Z,99.27
2023-01-13T21:13:57.727Z,100.00
2023-01-13T21:16:25.829Z,100.00
2023-01-13T21:19:10.740Z,99.69
2023-01-13T21:21:38.638Z,99.98
2023-01-13T21:24:06.689Z,99.57
2023-01-13T21:26:35.886Z,100.00
2023-01-13T21:29:04.546Z,100.00
2023-01-13T21:31:32.822Z,100.00
2023-01-13T21:34:01.815Z,100.00
2023-01-13T21:36:31.677Z,100.00
2023-01-13T21:39:01.814Z,100.00
2023-01-13T21:41:59.669Z,100.00
2023-01-13T21:44:48.907Z,100.00
2023-01-13T21:47:37.171Z,100.00
2023-01-13T21:50:13.082Z,100.00
2023-01-13T21:52:44.391Z,99.57
2023-01-13T21:55:20.953Z,99.99
2023-01-13T21:57:57.578Z,100.00
2023-01-13T22:03:23.984Z,100.00
2023-01-13T22:05:55.934Z,100.00
2023-01-13T22:11:20.876Z,100.00
2023-01-13T22:14:14.270Z,100.00
2023-01-13T22:16:50.058Z,100.00
2023-01-13T22:19:18.777Z,100.00
2023-01-13T22:21:46.643Z,100.00
2023-01-13T22:24:15.837Z,100.00
2023-01-13T22:26:44.614Z,100.00
2023-01-13T22:29:12.647Z,100.00
2023-01-13T22:31:40.487Z,100.00
2023-01-13T22:34:11.889Z,100.00
2023-01-13T22:36:40.634Z,100.00
2023-01-13T22:39:11.500Z,100.00
2023-01-13T22:41:39.610Z,100.00
2023-01-13T22:44:07.419Z,100.00
2023-01-13T22:46:35.986Z,100.00
2023-01-13T22:49:05.554Z,100.00
2023-01-13T22:51:33.363Z,100.00
2023-01-13T22:54:04.849Z,100.00
2023-01-13T22:56:37.208Z,100.00
2023-01-13T22:59:32.900Z,100.00
2023-01-13T23:02:01.992Z,100.00
2023-01-13T23:04:29.932Z,100.00
2023-01-13T23:06:59.949Z,100.00
2023-01-13T23:09:29.967Z,100.00
2023-01-13T23:11:58.919Z,100.00
2023-01-13T23:14:27.155Z,100.00
2023-01-13T23:16:55.144Z,100.00
2023-01-13T23:19:22.967Z,100.00
2023-01-13T23:21:52.851Z,100.00
2023-01-13T23:24:46.048Z,100.00
2023-01-13T23:27:14.163Z,100.00
2023-01-13T23:29:42.099Z,100.00
2023-01-13T23:32:10.063Z,100.00
2023-01-13T23:34:39.951Z,100.00
2023-01-13T23:37:08.692Z,100.00
2023-01-13T23:39:36.665Z,100.00
2023-01-13T23:42:04.477Z,100.00
2023-01-13T23:44:32.290Z,100.00
2023-01-13T23:47:25.615Z,100.00
2023-01-13T23:49:53.442Z,100.00
2023-01-13T23:52:21.301Z,100.00
2023-01-13T23:54:49.934Z,100.00
2023-01-13T23:57:17.733Z,100.00
2023-01-13T23:59:45.709Z,100.00
